sensor_id;sensor_type;location;lat;lon;timestamp;temperature;humidity
19868;DHT22;10096;51.112;6.776;2023-04-01T00:01:33;11.30;99.90
19868;DHT22;10096;51.112;6.776;2023-04-01T00:04:01;11.10;99.90
19868;DHT22;10096;51.112;6.776;2023-04-01T00:06:28;11.20;99.90
19868;DHT22;10096;51.112;6.776;2023-04-01T00:08:56;11.10;99.90
19868;DHT22;10096;51.112;6.776;2023-04-01T00:11:23;11.10;99.90
19868;DHT22;10096;51.112;6.776;2023-04-01T00:13:52;11.00;99.90
19868;DHT22;10096;51.112;6.776;2023-04-01T00:16:20;11.20;99.90
19868;DHT22;10096;51.112;6.776;2023-04-01T00:18:47;11.00;99.90
19868;DHT22;10096;51.112;6.776;2023-04-01T00:21:17;10.90;99.90
19868;DHT22;10096;51.112;6.776;2023-04-01T00:23:47;11.10;99.90
19868;DHT22;10096;51.112;6.776;2023-04-01T00:26:22;11.10;99.90
19868;DHT22;10096;51.112;6.776;2023-04-01T00:28:50;11.20;99.90
19868;DHT22;10096;51.112;6.776;2023-04-01T00:31:18;10.80;99.90
19868;DHT22;10096;51.112;6.776;2023-04-01T00:33:44;11.00;99.90
19868;DHT22;10096;51.112;6.776;2023-04-01T00:36:13;11.20;99.90
19868;DHT22;10096;51.112;6.776;2023-04-01T00:38:42;11.00;99.90
19868;DHT22;10096;51.112;6.776;2023-04-01T00:41:11;11.20;99.90
19868;DHT22;10096;51.112;6.776;2023-04-01T00:43:40;10.90;99.90
19868;DHT22;10096;51.112;6.776;2023-04-01T00:46:07;11.10;99.90
19868;DHT22;10096;51.112;6.776;2023-04-01T00:48:36;11.10;99.90
19868;DHT22;10096;51.112;6.776;2023-04-01T00:51:07;11.10;99.90
19868;DHT22;10096;51.112;6.776;2023-04-01T00:53:38;11.10;99.90
19868;DHT22;10096;51.112;6.776;2023-04-01T00:56:11;10.90;99.90
19868;DHT22;10096;51.112;6.776;2023-04-01T00:58:43;11.00;99.90
19868;DHT22;10096;51.112;6.776;2023-04-01T01:01:10;11.30;99.90
19868;DHT22;10096;51.112;6.776;2023-04-01T01:03:38;10.90;99.90
19868;DHT22;10096;51.112;6.776;2023-04-01T01:06:11;11.10;99.90
19868;DHT22;10096;51.112;6.776;2023-04-01T01:09:06;11.00;99.90
19868;DHT22;10096;51.112;6.776;2023-04-01T01:11:50;10.90;99.90
19868;DHT22;10096;51.112;6.776;2023-04-01T01:14:31;11.10;99.90
19868;DHT22;10096;51.112;6.776;2023-04-01T01:17:06;10.90;99.90
19868;DHT22;10096;51.112;6.776;2023-04-01T01:26:39;10.80;99.90
19868;DHT22;10096;51.112;6.776;2023-04-01T01:33:28;11.00;99.90
19868;DHT22;10096;51.112;6.776;2023-04-01T01:36:09;10.90;1.00
19868;DHT22;10096;51.112;6.776;2023-04-01T01:38:41;10.80;1.00
19868;DHT22;10096;51.112;6.776;2023-04-01T01:41:12;10.60;1.00
19868;DHT22;10096;51.112;6.776;2023-04-01T01:43:46;10.70;1.00
19868;DHT22;10096;51.112;6.776;2023-04-01T01:46:19;10.80;1.00
19868;DHT22;10096;51.112;6.776;2023-04-01T01:49:01;10.90;1.00
19868;DHT22;10096;51.112;6.776;2023-04-01T01:51:34;10.90;1.00
19868;DHT22;10096;51.112;6.776;2023-04-01T01:54:02;10.90;1.00
19868;DHT22;10096;51.112;6.776;2023-04-01T01:56:29;10.80;1.00
19868;DHT22;10096;51.112;6.776;2023-04-01T01:59:00;10.70;1.00
19868;DHT22;10096;51.112;6.776;2023-04-01T02:01:30;10.70;1.00
19868;DHT22;10096;51.112;6.776;2023-04-01T02:03:58;10.30;1.00
19868;DHT22;10096;51.112;6.776;2023-04-01T02:06:27;10.60;1.00
19868;DHT22;10096;51.112;6.776;2023-04-01T02:09:00;10.70;1.00
19868;DHT22;10096;51.112;6.776;2023-04-01T02:11:32;10.50;1.00
19868;DHT22;10096;51.112;6.776;2023-04-01T02:14:04;10.60;1.00
19868;DHT22;10096;51.112;6.776;2023-04-01T02:16:36;10.60;10.10
19868;DHT22;10096;51.112;6.776;2023-04-01T02:19:05;10.40;45.50
19868;DHT22;10096;51.112;6.776;2023-04-01T02:21:34;10.70;99.90
19868;DHT22;10096;51.112;6.776;2023-04-01T02:24:06;10.70;99.90
19868;DHT22;10096;51.112;6.776;2023-04-01T02:26:35;10.60;2.40
19868;DHT22;10096;51.112;6.776;2023-04-01T02:29:03;10.50;52.80
19868;DHT22;10096;51.112;6.776;2023-04-01T02:31:36;10.60;99.90
19868;DHT22;10096;51.112;6.776;2023-04-01T02:34:16;10.40;99.90
19868;DHT22;10096;51.112;6.776;2023-04-01T02:36:44;10.60;99.90
19868;DHT22;10096;51.112;6.776;2023-04-01T02:39:13;10.80;99.90
19868;DHT22;10096;51.112;6.776;2023-04-01T02:41:41;10.80;23.20
19868;DHT22;10096;51.112;6.776;2023-04-01T02:44:08;10.60;20.20
19868;DHT22;10096;51.112;6.776;2023-04-01T02:46:35;10.60;1.00
19868;DHT22;10096;51.112;6.776;2023-04-01T02:49:02;10.60;1.00
19868;DHT22;10096;51.112;6.776;2023-04-01T02:51:29;10.60;1.00
19868;DHT22;10096;51.112;6.776;2023-04-01T02:53:59;10.70;1.00
19868;DHT22;10096;51.112;6.776;2023-04-01T02:56:28;10.90;1.00
19868;DHT22;10096;51.112;6.776;2023-04-01T02:58:55;10.90;1.00
19868;DHT22;10096;51.112;6.776;2023-04-01T03:01:23;10.80;1.00
19868;DHT22;10096;51.112;6.776;2023-04-01T03:03:51;11.00;1.00
19868;DHT22;10096;51.112;6.776;2023-04-01T03:06:25;10.90;1.00
19868;DHT22;10096;51.112;6.776;2023-04-01T03:09:03;10.70;1.00
19868;DHT22;10096;51.112;6.776;2023-04-01T03:11:37;10.90;1.00
19868;DHT22;10096;51.112;6.776;2023-04-01T03:14:06;10.70;1.00
19868;DHT22;10096;51.112;6.776;2023-04-01T03:16:36;10.70;1.00
19868;DHT22;10096;51.112;6.776;2023-04-01T03:19:03;10.80;1.00
19868;DHT22;10096;51.112;6.776;2023-04-01T03:21:30;10.70;1.00
19868;DHT22;10096;51.112;6.776;2023-04-01T03:24:08;10.90;1.00
19868;DHT22;10096;51.112;6.776;2023-04-01T03:26:37;10.70;1.00
19868;DHT22;10096;51.112;6.776;2023-04-01T03:29:04;10.90;1.00
19868;DHT22;10096;51.112;6.776;2023-04-01T03:31:31;10.70;1.00
19868;DHT22;10096;51.112;6.776;2023-04-01T03:33:59;10.90;1.00
19868;DHT22;10096;51.112;6.776;2023-04-01T03:36:29;10.70;1.00
19868;DHT22;10096;51.112;6.776;2023-04-01T03:38:56;10.70;1.00
19868;DHT22;10096;51.112;6.776;2023-04-01T03:41:25;10.70;1.00
19868;DHT22;10096;51.112;6.776;2023-04-01T03:43:54;10.60;1.00
19868;DHT22;10096;51.112;6.776;2023-04-01T03:46:25;10.60;1.00
19868;DHT22;10096;51.112;6.776;2023-04-01T03:48:54;10.80;1.00
19868;DHT22;10096;51.112;6.776;2023-04-01T03:51:23;10.90;1.00
19868;DHT22;10096;51.112;6.776;2023-04-01T03:53:52;10.70;1.00
19868;DHT22;10096;51.112;6.776;2023-04-01T03:56:23;11.00;1.00
19868;DHT22;10096;51.112;6.776;2023-04-01T03:58:54;11.00;1.00
19868;DHT22;10096;51.112;6.776;2023-04-01T04:01:24;10.90;1.00
19868;DHT22;10096;51.112;6.776;2023-04-01T04:03:51;10.70;1.00
19868;DHT22;10096;51.112;6.776;2023-04-01T04:06:25;10.70;1.00
19868;DHT22;10096;51.112;6.776;2023-04-01T04:08:52;10.80;19.90
19868;DHT22;10096;51.112;6.776;2023-04-01T04:11:20;10.70;13.10
19868;DHT22;10096;51.112;6.776;2023-04-01T04:14:00;10.70;9.80
19868;DHT22;10096;51.112;6.776;2023-04-01T04:16:27;10.90;99.90
19868;DHT22;10096;51.112;6.776;2023-04-01T04:18:56;10.70;89.00
19868;DHT22;10096;51.112;6.776;2023-04-01T04:21:23;10.70;99.90
19868;DHT22;10096;51.112;6.776;2023-04-01T04:23:50;10.70;99.90
19868;DHT22;10096;51.112;6.776;2023-04-01T04:26:22;11.00;30.90
19868;DHT22;10096;51.112;6.776;2023-04-01T04:28:54;10.70;99.90
19868;DHT22;10096;51.112;6.776;2023-04-01T04:31:25;10.60;97.20
19868;DHT22;10096;51.112;6.776;2023-04-01T04:33:52;10.50;22.80
19868;DHT22;10096;51.112;6.776;2023-04-01T04:36:20;10.70;99.90
19868;DHT22;10096;51.112;6.776;2023-04-01T04:38:48;10.70;96.20
19868;DHT22;10096;51.112;6.776;2023-04-01T04:41:16;10.70;58.50
19868;DHT22;10096;51.112;6.776;2023-04-01T04:43:49;10.70;24.60
19868;DHT22;10096;51.112;6.776;2023-04-01T04:46:17;10.70;99.90
19868;DHT22;10096;51.112;6.776;2023-04-01T04:48:47;10.80;99.90
19868;DHT22;10096;51.112;6.776;2023-04-01T04:51:15;10.70;65.60
19868;DHT22;10096;51.112;6.776;2023-04-01T04:53:56;10.90;99.90
19868;DHT22;10096;51.112;6.776;2023-04-01T04:56:27;10.80;51.70
19868;DHT22;10096;51.112;6.776;2023-04-01T04:58:59;10.80;99.90
19868;DHT22;10096;51.112;6.776;2023-04-01T05:01:26;10.90;99.90
19868;DHT22;10096;51.112;6.776;2023-04-01T05:03:58;10.70;99.90
19868;DHT22;10096;51.112;6.776;2023-04-01T05:06:43;10.90;99.90
19868;DHT22;10096;51.112;6.776;2023-04-01T05:09:14;10.70;99.90
19868;DHT22;10096;51.112;6.776;2023-04-01T05:11:44;10.70;99.90
19868;DHT22;10096;51.112;6.776;2023-04-01T05:14:17;11.00;99.90
19868;DHT22;10096;51.112;6.776;2023-04-01T05:17:01;11.10;99.90
19868;DHT22;10096;51.112;6.776;2023-04-01T05:19:32;10.70;99.90
19868;DHT22;10096;51.112;6.776;2023-04-01T05:22:01;10.80;99.90
19868;DHT22;10096;51.112;6.776;2023-04-01T05:24:34;10.80;99.90
19868;DHT22;10096;51.112;6.776;2023-04-01T05:27:01;10.70;99.90
19868;DHT22;10096;51.112;6.776;2023-04-01T05:29:33;10.70;99.90
19868;DHT22;10096;51.112;6.776;2023-04-01T05:32:00;10.50;99.90
19868;DHT22;10096;51.112;6.776;2023-04-01T05:34:31;10.70;99.90
19868;DHT22;10096;51.112;6.776;2023-04-01T05:37:00;10.70;99.90
19868;DHT22;10096;51.112;6.776;2023-04-01T05:39:29;10.70;99.90
19868;DHT22;10096;51.112;6.776;2023-04-01T05:41:56;10.90;99.90
19868;DHT22;10096;51.112;6.776;2023-04-01T05:44:25;10.90;99.90
19868;DHT22;10096;51.112;6.776;2023-04-01T05:46:52;10.80;99.90
19868;DHT22;10096;51.112;6.776;2023-04-01T05:49:24;10.60;99.90
19868;DHT22;10096;51.112;6.776;2023-04-01T05:51:55;10.70;99.90
19868;DHT22;10096;51.112;6.776;2023-04-01T05:54:28;10.80;99.90
19868;DHT22;10096;51.112;6.776;2023-04-01T05:56:55;11.00;99.90
19868;DHT22;10096;51.112;6.776;2023-04-01T05:59:22;11.00;99.90
19868;DHT22;10096;51.112;6.776;2023-04-01T06:01:51;10.90;99.90
19868;DHT22;10096;51.112;6.776;2023-04-01T06:04:28;10.80;99.90
19868;DHT22;10096;51.112;6.776;2023-04-01T06:07:15;10.90;99.90
19868;DHT22;10096;51.112;6.776;2023-04-01T06:09:50;10.90;99.90
19868;DHT22;10096;51.112;6.776;2023-04-01T06:15:29;10.90;99.90
19868;DHT22;10096;51.112;6.776;2023-04-01T06:18:38;10.90;99.90
19868;DHT22;10096;51.112;6.776;2023-04-01T06:21:21;11.00;99.90
19868;DHT22;10096;51.112;6.776;2023-04-01T06:24:02;11.20;99.90
19868;DHT22;10096;51.112;6.776;2023-04-01T06:26:39;10.80;8.90
19868;DHT22;10096;51.112;6.776;2023-04-01T06:29:26;11.20;96.30
19868;DHT22;10096;51.112;6.776;2023-04-01T06:32:17;11.00;48.40
19868;DHT22;10096;51.112;6.776;2023-04-01T06:35:03;11.10;1.00
19868;DHT22;10096;51.112;6.776;2023-04-01T06:37:49;11.40;1.00
19868;DHT22;10096;51.112;6.776;2023-04-01T06:43:30;11.40;1.00
19868;DHT22;10096;51.112;6.776;2023-04-01T06:46:07;11.30;1.00
19868;DHT22;10096;51.112;6.776;2023-04-01T06:48:53;11.40;1.00
19868;DHT22;10096;51.112;6.776;2023-04-01T06:51:30;11.60;1.00
19868;DHT22;10096;51.112;6.776;2023-04-01T06:54:10;11.40;1.00
19868;DHT22;10096;51.112;6.776;2023-04-01T06:56:41;11.40;1.00
19868;DHT22;10096;51.112;6.776;2023-04-01T06:59:16;11.30;1.00
19868;DHT22;10096;51.112;6.776;2023-04-01T07:02:11;11.40;1.00
19868;DHT22;10096;51.112;6.776;2023-04-01T07:04:40;11.00;1.00
19868;DHT22;10096;51.112;6.776;2023-04-01T07:07:21;11.50;1.00
19868;DHT22;10096;51.112;6.776;2023-04-01T07:09:52;11.20;76.20
19868;DHT22;10096;51.112;6.776;2023-04-01T07:12:30;11.20;1.00
19868;DHT22;10096;51.112;6.776;2023-04-01T07:15:11;11.00;69.40
19868;DHT22;10096;51.112;6.776;2023-04-01T07:17:42;11.40;1.00
19868;DHT22;10096;51.112;6.776;2023-04-01T07:20:24;11.50;1.00
19868;DHT22;10096;51.112;6.776;2023-04-01T07:23:02;11.30;1.00
19868;DHT22;10096;51.112;6.776;2023-04-01T07:25:33;11.40;1.00
19868;DHT22;10096;51.112;6.776;2023-04-01T07:28:06;11.30;9.20
19868;DHT22;10096;51.112;6.776;2023-04-01T07:30:57;11.30;1.00
19868;DHT22;10096;51.112;6.776;2023-04-01T07:33:46;11.40;74.90
19868;DHT22;10096;51.112;6.776;2023-04-01T07:36:20;11.40;1.00
19868;DHT22;10096;51.112;6.776;2023-04-01T07:39:01;11.50;1.00
19868;DHT22;10096;51.112;6.776;2023-04-01T07:41:37;11.50;1.00
19868;DHT22;10096;51.112;6.776;2023-04-01T07:44:24;11.50;1.00
19868;DHT22;10096;51.112;6.776;2023-04-01T07:47:19;11.40;1.00
19868;DHT22;10096;51.112;6.776;2023-04-01T07:50:02;11.70;1.00
19868;DHT22;10096;51.112;6.776;2023-04-01T07:52:38;11.60;1.00
19868;DHT22;10096;51.112;6.776;2023-04-01T07:55:14;11.50;1.00
19868;DHT22;10096;51.112;6.776;2023-04-01T07:57:51;11.60;1.00
19868;DHT22;10096;51.112;6.776;2023-04-01T08:00:22;11.40;1.00
19868;DHT22;10096;51.112;6.776;2023-04-01T08:06:11;11.40;1.00
19868;DHT22;10096;51.112;6.776;2023-04-01T08:09:00;11.40;1.00
19868;DHT22;10096;51.112;6.776;2023-04-01T08:11:50;11.40;1.00
19868;DHT22;10096;51.112;6.776;2023-04-01T08:14:35;11.30;84.30
19868;DHT22;10096;51.112;6.776;2023-04-01T08:17:08;11.30;7.00
19868;DHT22;10096;51.112;6.776;2023-04-01T08:19:51;11.40;64.90
19868;DHT22;10096;51.112;6.776;2023-04-01T08:22:27;11.50;80.20
19868;DHT22;10096;51.112;6.776;2023-04-01T08:24:57;11.30;18.90
19868;DHT22;10096;51.112;6.776;2023-04-01T08:27:33;11.60;47.10
19868;DHT22;10096;51.112;6.776;2023-04-01T08:30:04;11.40;99.90
19868;DHT22;10096;51.112;6.776;2023-04-01T08:32:36;11.40;29.70
19868;DHT22;10096;51.112;6.776;2023-04-01T08:35:27;11.50;59.80
19868;DHT22;10096;51.112;6.776;2023-04-01T08:38:05;11.60;42.00
19868;DHT22;10096;51.112;6.776;2023-04-01T08:40:49;11.80;17.50
19868;DHT22;10096;51.112;6.776;2023-04-01T08:43:31;11.70;1.00
19868;DHT22;10096;51.112;6.776;2023-04-01T08:46:25;11.90;1.00
19868;DHT22;10096;51.112;6.776;2023-04-01T08:49:19;11.80;1.00
19868;DHT22;10096;51.112;6.776;2023-04-01T08:52:22;11.80;1.00
19868;DHT22;10096;51.112;6.776;2023-04-01T08:55:25;11.90;1.00
19868;DHT22;10096;51.112;6.776;2023-04-01T08:58:07;12.00;1.00
19868;DHT22;10096;51.112;6.776;2023-04-01T09:00:44;12.10;1.00
19868;DHT22;10096;51.112;6.776;2023-04-01T09:06:32;11.90;1.00
19868;DHT22;10096;51.112;6.776;2023-04-01T09:12:22;11.90;1.00
19868;DHT22;10096;51.112;6.776;2023-04-01T09:15:30;11.80;1.00
19868;DHT22;10096;51.112;6.776;2023-04-01T09:18:35;11.90;1.00
19868;DHT22;10096;51.112;6.776;2023-04-01T09:21:29;11.90;1.00
19868;DHT22;10096;51.112;6.776;2023-04-01T09:24:20;12.00;1.00
19868;DHT22;10096;51.112;6.776;2023-04-01T09:27:03;11.90;1.00
19868;DHT22;10096;51.112;6.776;2023-04-01T09:35:46;11.90;1.00
19868;DHT22;10096;51.112;6.776;2023-04-01T09:38:21;12.00;1.00
19868;DHT22;10096;51.112;6.776;2023-04-01T09:40:55;11.80;1.00
19868;DHT22;10096;51.112;6.776;2023-04-01T09:43:44;11.90;1.00
19868;DHT22;10096;51.112;6.776;2023-04-01T09:46:20;11.90;1.00
19868;DHT22;10096;51.112;6.776;2023-04-01T09:49:34;11.80;1.00
19868;DHT22;10096;51.112;6.776;2023-04-01T09:52:20;11.90;1.00
19868;DHT22;10096;51.112;6.776;2023-04-01T09:55:15;11.90;1.00
19868;DHT22;10096;51.112;6.776;2023-04-01T09:58:21;11.70;1.00
19868;DHT22;10096;51.112;6.776;2023-04-01T10:04:41;12.00;1.00
19868;DHT22;10096;51.112;6.776;2023-04-01T10:11:04;12.30;1.00
19868;DHT22;10096;51.112;6.776;2023-04-01T10:14:07;12.30;1.00
19868;DHT22;10096;51.112;6.776;2023-04-01T10:17:07;12.30;1.00
19868;DHT22;10096;51.112;6.776;2023-04-01T10:19:55;12.40;1.00
19868;DHT22;10096;51.112;6.776;2023-04-01T10:26:10;12.60;1.00
19868;DHT22;10096;51.112;6.776;2023-04-01T10:29:10;12.60;1.00
19868;DHT22;10096;51.112;6.776;2023-04-01T10:32:05;12.60;1.00
19868;DHT22;10096;51.112;6.776;2023-04-01T10:35:14;12.50;1.00
19868;DHT22;10096;51.112;6.776;2023-04-01T10:38:03;12.50;1.00
19868;DHT22;10096;51.112;6.776;2023-04-01T10:40:57;12.20;1.00
19868;DHT22;10096;51.112;6.776;2023-04-01T10:46:57;12.30;1.00
19868;DHT22;10096;51.112;6.776;2023-04-01T10:49:46;12.50;1.00
19868;DHT22;10096;51.112;6.776;2023-04-01T10:52:45;12.70;1.00
19868;DHT22;10096;51.112;6.776;2023-04-01T10:55:37;12.50;1.00
19868;DHT22;10096;51.112;6.776;2023-04-01T11:05:06;12.50;1.00
19868;DHT22;10096;51.112;6.776;2023-04-01T11:20:25;12.90;99.90
19868;DHT22;10096;51.112;6.776;2023-04-01T11:23:06;12.70;99.90
19868;DHT22;10096;51.112;6.776;2023-04-01T11:25:59;12.70;99.90
19868;DHT22;10096;51.112;6.776;2023-04-01T11:31:43;12.80;99.90
19868;DHT22;10096;51.112;6.776;2023-04-01T11:34:36;12.80;99.90
19868;DHT22;10096;51.112;6.776;2023-04-01T11:37:14;13.00;99.90
19868;DHT22;10096;51.112;6.776;2023-04-01T11:39:59;13.20;99.90
19868;DHT22;10096;51.112;6.776;2023-04-01T11:42:35;13.10;99.90
19868;DHT22;10096;51.112;6.776;2023-04-01T11:45:16;13.30;99.90
19868;DHT22;10096;51.112;6.776;2023-04-01T11:51:16;13.00;99.90
19868;DHT22;10096;51.112;6.776;2023-04-01T11:53:52;13.10;99.90
19868;DHT22;10096;51.112;6.776;2023-04-01T11:56:38;13.00;99.90
19868;DHT22;10096;51.112;6.776;2023-04-01T11:59:44;13.00;99.90
19868;DHT22;10096;51.112;6.776;2023-04-01T12:02:20;13.10;99.90
19868;DHT22;10096;51.112;6.776;2023-04-01T12:05:23;13.30;99.90
19868;DHT22;10096;51.112;6.776;2023-04-01T12:08:23;13.20;99.90
19868;DHT22;10096;51.112;6.776;2023-04-01T12:10:58;13.00;99.90
19868;DHT22;10096;51.112;6.776;2023-04-01T12:13:35;13.50;99.90
19868;DHT22;10096;51.112;6.776;2023-04-01T12:16:21;13.30;99.90
19868;DHT22;10096;51.112;6.776;2023-04-01T12:18:59;13.50;99.90
19868;DHT22;10096;51.112;6.776;2023-04-01T12:21:33;13.70;99.90
19868;DHT22;10096;51.112;6.776;2023-04-01T12:24:29;13.40;99.90
19868;DHT22;10096;51.112;6.776;2023-04-01T12:27:14;13.30;99.90
19868;DHT22;10096;51.112;6.776;2023-04-01T12:30:09;13.10;99.90
19868;DHT22;10096;51.112;6.776;2023-04-01T12:32:45;13.00;99.90
19868;DHT22;10096;51.112;6.776;2023-04-01T12:35:23;13.30;99.90
19868;DHT22;10096;51.112;6.776;2023-04-01T12:38:04;13.10;99.90
19868;DHT22;10096;51.112;6.776;2023-04-01T12:40:46;12.90;99.90
19868;DHT22;10096;51.112;6.776;2023-04-01T12:46:14;12.90;99.90
19868;DHT22;10096;51.112;6.776;2023-04-01T12:49:39;12.90;99.90
19868;DHT22;10096;51.112;6.776;2023-04-01T12:52:11;12.70;99.90
19868;DHT22;10096;51.112;6.776;2023-04-01T12:55:09;12.70;99.90
19868;DHT22;10096;51.112;6.776;2023-04-01T13:01:16;12.60;99.90
19868;DHT22;10096;51.112;6.776;2023-04-01T13:07:03;12.80;99.90
19868;DHT22;10096;51.112;6.776;2023-04-01T13:09:42;12.70;99.90
19868;DHT22;10096;51.112;6.776;2023-04-01T13:12:30;12.80;99.90
19868;DHT22;10096;51.112;6.776;2023-04-01T13:15:17;12.90;99.90
19868;DHT22;10096;51.112;6.776;2023-04-01T13:18:13;13.00;99.90
19868;DHT22;10096;51.112;6.776;2023-04-01T13:20:49;13.10;99.90
19868;DHT22;10096;51.112;6.776;2023-04-01T13:23:30;13.00;99.90
19868;DHT22;10096;51.112;6.776;2023-04-01T13:26:09;13.00;99.90
19868;DHT22;10096;51.112;6.776;2023-04-01T13:28:45;13.00;99.90
19868;DHT22;10096;51.112;6.776;2023-04-01T13:31:38;12.90;99.90
19868;DHT22;10096;51.112;6.776;2023-04-01T13:34:19;13.00;99.90
19868;DHT22;10096;51.112;6.776;2023-04-01T13:36:56;13.30;99.90
19868;DHT22;10096;51.112;6.776;2023-04-01T13:39:42;13.50;99.90
19868;DHT22;10096;51.112;6.776;2023-04-01T13:42:19;13.50;99.90
19868;DHT22;10096;51.112;6.776;2023-04-01T13:44:51;13.30;99.90
19868;DHT22;10096;51.112;6.776;2023-04-01T13:50:45;13.40;99.90
19868;DHT22;10096;51.112;6.776;2023-04-01T13:56:28;13.40;99.90
19868;DHT22;10096;51.112;6.776;2023-04-01T14:01:54;13.50;99.90
19868;DHT22;10096;51.112;6.776;2023-04-01T14:04:50;13.60;99.90
19868;DHT22;10096;51.112;6.776;2023-04-01T14:07:32;13.90;91.40
19868;DHT22;10096;51.112;6.776;2023-04-01T14:10:18;14.00;97.20
19868;DHT22;10096;51.112;6.776;2023-04-01T14:12:51;14.20;41.50
19868;DHT22;10096;51.112;6.776;2023-04-01T14:15:41;14.30;57.40
19868;DHT22;10096;51.112;6.776;2023-04-01T14:18:41;14.20;71.50
19868;DHT22;10096;51.112;6.776;2023-04-01T14:21:20;13.90;83.20
19868;DHT22;10096;51.112;6.776;2023-04-01T14:24:07;13.80;86.50
19868;DHT22;10096;51.112;6.776;2023-04-01T14:27:09;13.70;99.90
19868;DHT22;10096;51.112;6.776;2023-04-01T14:29:51;13.80;99.90
19868;DHT22;10096;51.112;6.776;2023-04-01T14:32:28;13.70;99.90
19868;DHT22;10096;51.112;6.776;2023-04-01T14:35:25;13.80;79.50
19868;DHT22;10096;51.112;6.776;2023-04-01T14:38:26;13.60;99.10
19868;DHT22;10096;51.112;6.776;2023-04-01T14:41:06;13.40;99.90
19868;DHT22;10096;51.112;6.776;2023-04-01T14:44:05;13.30;99.90
19868;DHT22;10096;51.112;6.776;2023-04-01T14:47:11;13.40;99.90
19868;DHT22;10096;51.112;6.776;2023-04-01T14:49:47;13.30;99.90
19868;DHT22;10096;51.112;6.776;2023-04-01T14:52:24;13.00;99.90
19868;DHT22;10096;51.112;6.776;2023-04-01T14:54:52;13.30;99.90
19868;DHT22;10096;51.112;6.776;2023-04-01T15:00:18;13.20;99.90
19868;DHT22;10096;51.112;6.776;2023-04-01T15:03:04;13.10;99.90
19868;DHT22;10096;51.112;6.776;2023-04-01T15:05:42;13.30;99.90
19868;DHT22;10096;51.112;6.776;2023-04-01T15:08:20;13.30;99.90
19868;DHT22;10096;51.112;6.776;2023-04-01T15:14:19;13.40;99.90
19868;DHT22;10096;51.112;6.776;2023-04-01T15:16:59;13.40;99.90
19868;DHT22;10096;51.112;6.776;2023-04-01T15:19:39;13.20;99.90
19868;DHT22;10096;51.112;6.776;2023-04-01T15:22:23;13.10;99.90
19868;DHT22;10096;51.112;6.776;2023-04-01T15:25:04;13.20;99.90
19868;DHT22;10096;51.112;6.776;2023-04-01T15:27:38;13.10;99.90
19868;DHT22;10096;51.112;6.776;2023-04-01T15:30:23;13.10;99.90
19868;DHT22;10096;51.112;6.776;2023-04-01T15:33:15;13.30;99.90
19868;DHT22;10096;51.112;6.776;2023-04-01T15:35:53;13.10;99.90
19868;DHT22;10096;51.112;6.776;2023-04-01T15:38:33;13.30;99.90
19868;DHT22;10096;51.112;6.776;2023-04-01T15:41:07;13.20;99.90
19868;DHT22;10096;51.112;6.776;2023-04-01T15:43:41;13.00;99.90
19868;DHT22;10096;51.112;6.776;2023-04-01T15:46:20;12.90;99.90
19868;DHT22;10096;51.112;6.776;2023-04-01T15:48:58;12.70;99.90
19868;DHT22;10096;51.112;6.776;2023-04-01T15:57:40;12.70;99.90
19868;DHT22;10096;51.112;6.776;2023-04-01T16:00:25;12.60;99.90
19868;DHT22;10096;51.112;6.776;2023-04-01T16:03:18;12.90;99.90
19868;DHT22;10096;51.112;6.776;2023-04-01T16:06:10;12.80;99.90
19868;DHT22;10096;51.112;6.776;2023-04-01T16:09:06;12.70;99.90
19868;DHT22;10096;51.112;6.776;2023-04-01T16:11:43;12.70;99.90
19868;DHT22;10096;51.112;6.776;2023-04-01T16:14:37;12.90;99.90
19868;DHT22;10096;51.112;6.776;2023-04-01T16:17:25;12.90;99.90
19868;DHT22;10096;51.112;6.776;2023-04-01T16:20:00;12.70;99.90
19868;DHT22;10096;51.112;6.776;2023-04-01T16:22:33;12.70;99.90
19868;DHT22;10096;51.112;6.776;2023-04-01T16:25:20;12.40;99.90
19868;DHT22;10096;51.112;6.776;2023-04-01T16:27:58;12.00;99.90
19868;DHT22;10096;51.112;6.776;2023-04-01T16:30:36;12.10;99.90
19868;DHT22;10096;51.112;6.776;2023-04-01T16:33:11;12.50;99.90
19868;DHT22;10096;51.112;6.776;2023-04-01T16:35:47;12.40;99.90
19868;DHT22;10096;51.112;6.776;2023-04-01T16:38:26;12.60;99.90
19868;DHT22;10096;51.112;6.776;2023-04-01T16:41:11;12.80;99.90
19868;DHT22;10096;51.112;6.776;2023-04-01T16:43:45;12.60;99.90
19868;DHT22;10096;51.112;6.776;2023-04-01T16:46:35;12.50;99.90
19868;DHT22;10096;51.112;6.776;2023-04-01T16:49:27;12.50;99.90
19868;DHT22;10096;51.112;6.776;2023-04-01T16:52:12;12.40;99.90
19868;DHT22;10096;51.112;6.776;2023-04-01T16:54:59;12.40;99.90
19868;DHT22;10096;51.112;6.776;2023-04-01T16:57:43;12.30;99.90
19868;DHT22;10096;51.112;6.776;2023-04-01T17:00:16;12.30;99.90
19868;DHT22;10096;51.112;6.776;2023-04-01T17:02:52;12.40;99.90
19868;DHT22;10096;51.112;6.776;2023-04-01T17:05:39;12.30;99.90
19868;DHT22;10096;51.112;6.776;2023-04-01T17:08:17;12.20;99.90
19868;DHT22;10096;51.112;6.776;2023-04-01T17:10:56;12.40;99.90
19868;DHT22;10096;51.112;6.776;2023-04-01T17:13:35;12.30;99.90
19868;DHT22;10096;51.112;6.776;2023-04-01T17:19:32;12.20;99.90
19868;DHT22;10096;51.112;6.776;2023-04-01T17:22:07;12.00;99.90
19868;DHT22;10096;51.112;6.776;2023-04-01T17:24:58;12.00;1.00
19868;DHT22;10096;51.112;6.776;2023-04-01T17:27:57;12.30;99.90
19868;DHT22;10096;51.112;6.776;2023-04-01T17:30:38;12.00;1.00
19868;DHT22;10096;51.112;6.776;2023-04-01T17:33:25;11.90;1.00
19868;DHT22;10096;51.112;6.776;2023-04-01T17:35:58;11.80;1.00
19868;DHT22;10096;51.112;6.776;2023-04-01T17:38:39;11.90;1.00
19868;DHT22;10096;51.112;6.776;2023-04-01T17:41:20;11.90;1.00
19868;DHT22;10096;51.112;6.776;2023-04-01T17:43:52;11.80;1.00
19868;DHT22;10096;51.112;6.776;2023-04-01T17:46:29;11.70;1.00
19868;DHT22;10096;51.112;6.776;2023-04-01T17:49:07;11.70;1.00
19868;DHT22;10096;51.112;6.776;2023-04-01T17:51:43;11.60;1.00
19868;DHT22;10096;51.112;6.776;2023-04-01T17:54:23;11.60;1.00
19868;DHT22;10096;51.112;6.776;2023-04-01T17:57:14;11.80;1.00
19868;DHT22;10096;51.112;6.776;2023-04-01T18:00:18;11.60;1.00
19868;DHT22;10096;51.112;6.776;2023-04-01T18:02:56;11.60;1.00
19868;DHT22;10096;51.112;6.776;2023-04-01T18:05:41;11.60;1.00
19868;DHT22;10096;51.112;6.776;2023-04-01T18:08:33;11.50;1.00
19868;DHT22;10096;51.112;6.776;2023-04-01T18:11:13;11.60;1.00
19868;DHT22;10096;51.112;6.776;2023-04-01T18:13:58;11.70;1.00
19868;DHT22;10096;51.112;6.776;2023-04-01T18:16:38;11.60;1.00
19868;DHT22;10096;51.112;6.776;2023-04-01T18:19:22;11.50;1.00
19868;DHT22;10096;51.112;6.776;2023-04-01T18:21:54;11.50;1.00
19868;DHT22;10096;51.112;6.776;2023-04-01T18:24:32;11.40;1.00
19868;DHT22;10096;51.112;6.776;2023-04-01T18:27:03;11.30;1.00
19868;DHT22;10096;51.112;6.776;2023-04-01T18:29:44;11.50;1.00
19868;DHT22;10096;51.112;6.776;2023-04-01T18:32:26;11.50;1.00
19868;DHT22;10096;51.112;6.776;2023-04-01T18:35:00;11.20;1.00
19868;DHT22;10096;51.112;6.776;2023-04-01T18:37:45;11.10;1.00